createdAt,value
2017-10-28T00:00:46.032Z,1035.06
2017-10-28T00:01:46.026Z,1035.08
2017-10-28T00:02:46.012Z,1035.04
2017-10-28T00:03:46.005Z,1035.05
2017-10-28T00:04:45.995Z,1035.07
2017-10-28T00:05:45.986Z,1035.07
2017-10-28T00:06:45.976Z,1035.07
2017-10-28T00:07:45.968Z,1035.06
2017-10-28T00:08:45.959Z,1035.09
2017-10-28T00:09:45.949Z,1035.07
2017-10-28T00:10:45.940Z,1035.11
2017-10-28T00:11:45.932Z,1035.07
2017-10-28T00:12:45.922Z,1035.07
2017-10-28T00:13:45.912Z,1035.07
2017-10-28T00:14:45.904Z,1035.02
2017-10-28T00:15:45.894Z,1035
2017-10-28T00:16:45.885Z,1034.98
2017-10-28T00:17:45.874Z,1035.01
2017-10-28T00:18:45.867Z,1034.94
2017-10-28T00:19:45.857Z,1034.9
2017-10-28T00:20:45.846Z,1034.88
2017-10-28T00:21:45.837Z,1034.82
2017-10-28T00:22:45.828Z,1034.75
2017-10-28T00:23:45.819Z,1034.74
2017-10-28T00:24:45.811Z,1034.76
2017-10-28T00:25:45.802Z,1034.74
2017-10-28T00:26:45.798Z,1034.64
2017-10-28T00:27:45.782Z,1034.71
2017-10-28T00:28:45.773Z,1034.67
2017-10-28T00:29:45.765Z,1034.6
2017-10-28T00:30:45.755Z,1034.6
2017-10-28T00:31:45.754Z,1034.53
2017-10-28T00:32:45.737Z,1034.53
2017-10-28T00:33:45.727Z,1034.46
2017-10-28T00:34:45.722Z,1034.51
2017-10-28T00:35:45.709Z,1034.47
2017-10-28T00:36:45.698Z,1034.48
2017-10-28T00:37:45.696Z,1034.47
2017-10-28T00:38:45.680Z,1034.44
2017-10-28T00:39:45.670Z,1034.43
2017-10-28T00:40:45.663Z,1034.42
2017-10-28T00:41:45.659Z,1034.38
2017-10-28T00:42:45.644Z,1034.32
2017-10-28T00:43:45.636Z,1034.35
2017-10-28T00:44:45.627Z,1034.3
2017-10-28T00:45:45.623Z,1034.26
2017-10-28T00:46:45.608Z,1034.29
2017-10-28T00:47:45.600Z,1034.21
2017-10-28T00:48:45.590Z,1034.18
2017-10-28T00:49:45.580Z,1034.13
2017-10-28T00:50:45.571Z,1034.11
2017-10-28T00:51:45.563Z,1034.07
2017-10-28T00:52:45.555Z,1034.07
2017-10-28T00:53:45.543Z,1033.99
2017-10-28T00:54:45.535Z,1034.02
2017-10-28T00:55:45.787Z,1033.93
2017-10-28T00:56:45.519Z,1033.96
2017-10-28T00:57:45.507Z,1033.96
2017-10-28T00:58:45.500Z,1034.03
2017-10-28T00:59:45.491Z,1034.04
2017-10-28T01:00:45.480Z,1034
2017-10-28T01:01:45.472Z,1033.99
2017-10-28T01:02:45.464Z,1033.96
2017-10-28T01:03:45.456Z,1033.97
2017-10-28T01:04:45.446Z,1033.89
2017-10-28T01:05:45.441Z,1033.84
2017-10-28T01:06:45.433Z,1033.82
2017-10-28T01:07:45.419Z,1033.76
2017-10-28T01:08:45.409Z,1033.73
2017-10-28T01:09:45.404Z,1033.73
2017-10-28T01:10:45.392Z,1033.69
2017-10-28T01:11:45.382Z,1033.65
2017-10-28T01:12:45.375Z,1033.69
2017-10-28T01:13:45.365Z,1033.72
2017-10-28T01:14:45.357Z,1033.68
2017-10-28T01:15:45.346Z,1033.62
2017-10-28T01:16:45.338Z,1033.53
2017-10-28T01:17:45.333Z,1033.51
2017-10-28T01:18:45.320Z,1033.51
2017-10-28T01:19:45.312Z,1033.47
2017-10-28T01:20:45.303Z,1033.4
2017-10-28T01:21:45.293Z,1033.41
2017-10-28T01:22:45.284Z,1033.33
2017-10-28T01:23:45.275Z,1033.31
2017-10-28T01:24:45.268Z,1033.33
2017-10-28T01:25:45.259Z,1033.29
2017-10-28T01:26:45.250Z,1033.25
2017-10-28T01:27:45.241Z,1033.26
2017-10-28T01:28:45.232Z,1033.22
2017-10-28T01:29:45.222Z,1033.19
2017-10-28T01:30:45.214Z,1033.19
2017-10-28T01:31:45.207Z,1033.19
2017-10-28T01:32:45.198Z,1033.15
2017-10-28T01:33:45.188Z,1033.11
2017-10-28T01:34:45.179Z,1033.11
2017-10-28T01:35:45.170Z,1033.12
2017-10-28T01:36:45.162Z,1033.04
2017-10-28T01:37:45.152Z,1033.08
2017-10-28T01:38:45.146Z,1033.04
2017-10-28T01:39:45.137Z,1033.01
2017-10-28T01:40:45.128Z,1032.95
2017-10-28T01:41:45.120Z,1032.91
2017-10-28T01:42:45.109Z,1032.93
2017-10-28T01:43:45.102Z,1032.98
2017-10-28T01:44:45.097Z,1032.98
2017-10-28T01:45:45.084Z,1032.88
2017-10-28T01:46:45.076Z,1032.93
2017-10-28T01:47:45.067Z,1032.86
2017-10-28T01:48:45.059Z,1032.86
2017-10-28T01:49:45.049Z,1032.81
2017-10-28T01:50:45.041Z,1032.83
2017-10-28T01:51:45.031Z,1032.75
2017-10-28T01:52:45.022Z,1032.81
2017-10-28T01:53:45.016Z,1032.82
2017-10-28T01:54:45.006Z,1032.65
2017-10-28T01:55:44.996Z,1032.75
2017-10-28T01:56:44.989Z,1032.72
2017-10-28T01:57:44.980Z,1032.7
2017-10-28T01:58:44.970Z,1032.74
2017-10-28T01:59:44.962Z,1032.66
2017-10-28T02:00:44.953Z,1032.64
2017-10-28T02:01:44.945Z,1032.66
2017-10-28T02:02:44.935Z,1032.62
2017-10-28T02:03:44.926Z,1032.54
2017-10-28T02:04:44.919Z,1032.55
2017-10-28T02:05:44.909Z,1032.61
2017-10-28T02:06:44.904Z,1032.58
2017-10-28T02:07:44.892Z,1032.65
2017-10-28T02:08:44.884Z,1032.55
2017-10-28T02:09:44.874Z,1032.62
2017-10-28T02:10:44.867Z,1032.73
2017-10-28T02:11:44.856Z,1032.7
2017-10-28T02:12:44.849Z,1032.8
2017-10-28T02:13:44.841Z,1032.86
2017-10-28T02:14:44.832Z,1032.88
2017-10-28T02:15:44.822Z,1032.92
2017-10-28T02:16:44.821Z,1032.94
2017-10-28T02:17:44.804Z,1033.02
2017-10-28T02:18:44.823Z,1033.01
2017-10-28T02:19:44.790Z,1032.99
2017-10-28T02:20:44.779Z,1033.07
2017-10-28T02:21:44.770Z,1033.02
2017-10-28T02:22:44.768Z,1033.07
2017-10-28T02:23:44.752Z,1033.05
2017-10-28T02:24:44.743Z,1033.01
2017-10-28T02:25:44.734Z,1033.09
2017-10-28T02:26:44.724Z,1033.03
2017-10-28T02:27:44.738Z,1033.01
2017-10-28T02:28:44.708Z,1033.02
2017-10-28T02:29:44.699Z,1032.98
2017-10-28T02:30:44.689Z,1032.87
2017-10-28T02:31:44.682Z,1032.83
2017-10-28T02:32:44.672Z,1032.84
2017-10-28T02:33:44.662Z,1032.86
2017-10-28T02:34:44.658Z,1032.83
2017-10-28T02:35:44.644Z,1032.83
2017-10-28T02:36:44.637Z,1032.83
2017-10-28T02:37:44.630Z,1032.8
2017-10-28T02:38:44.619Z,1032.81
2017-10-28T02:39:44.609Z,1032.66
2017-10-28T02:40:44.600Z,1032.65
2017-10-28T02:41:44.595Z,1032.6
2017-10-28T02:42:44.583Z,1032.58
2017-10-28T02:43:44.572Z,1032.53
2017-10-28T02:44:44.563Z,1032.54
2017-10-28T02:45:44.556Z,1032.41
2017-10-28T02:46:44.545Z,1032.48
2017-10-28T02:47:44.536Z,1032.41
2017-10-28T02:48:44.536Z,1032.41
2017-10-28T02:49:44.520Z,1032.36
2017-10-28T02:50:44.510Z,1032.32
2017-10-28T02:51:44.500Z,1032.34
2017-10-28T02:52:44.490Z,1032.34
2017-10-28T02:53:44.481Z,1032.35
2017-10-28T02:54:44.473Z,1032.26
2017-10-28T02:55:44.464Z,1032.35
2017-10-28T02:56:44.454Z,1032.38
2017-10-28T02:57:44.446Z,1032.36
2017-10-28T02:58:44.435Z,1032.39
2017-10-28T02:59:44.427Z,1032.43
2017-10-28T03:00:44.418Z,1032.33
2017-10-28T03:01:44.408Z,1032.43
2017-10-28T03:02:44.400Z,1032.39
2017-10-28T03:03:44.391Z,1032.43
2017-10-28T03:04:44.382Z,1032.46
2017-10-28T03:05:44.372Z,1032.42
2017-10-28T03:06:44.362Z,1032.52
2017-10-28T03:07:44.355Z,1032.48
2017-10-28T03:08:44.344Z,1032.5
2017-10-28T03:09:44.336Z,1032.5
2017-10-28T03:10:44.326Z,1032.38
2017-10-28T03:11:44.318Z,1032.42
2017-10-28T03:12:44.307Z,1032.39
2017-10-28T03:13:44.299Z,1032.41
2017-10-28T03:14:44.290Z,1032.45
2017-10-28T03:15:44.282Z,1032.37
2017-10-28T03:16:44.272Z,1032.37
2017-10-28T03:17:44.265Z,1032.29
2017-10-28T03:18:44.253Z,1032.27
2017-10-28T03:19:44.245Z,1032.23
2017-10-28T03:20:44.234Z,1032.2
2017-10-28T03:21:44.228Z,1032.17
2017-10-28T03:22:44.221Z,1032.14
2017-10-28T03:23:44.208Z,1032.05
2017-10-28T03:24:44.198Z,1032.07
2017-10-28T03:25:44.190Z,1032.1
2017-10-28T03:26:44.179Z,1032.13
2017-10-28T03:27:44.170Z,1032.17
2017-10-28T03:28:44.163Z,1032.16
2017-10-28T03:29:44.153Z,1032.17
2017-10-28T03:30:44.144Z,1032.21
2017-10-28T03:31:44.133Z,1032.15
2017-10-28T03:32:44.125Z,1032.16
2017-10-28T03:33:44.116Z,1032.24
2017-10-28T03:34:44.107Z,1032.23
2017-10-28T03:35:44.097Z,1032.2
2017-10-28T03:36:44.087Z,1032.18
2017-10-28T03:37:44.078Z,1032.2
2017-10-28T03:38:44.068Z,1032.13
2017-10-28T03:39:44.059Z,1032.12
2017-10-28T03:40:44.052Z,1032.14
2017-10-28T03:41:44.046Z,1032.01
2017-10-28T03:42:44.033Z,1032.03
2017-10-28T03:43:44.023Z,1032
2017-10-28T03:44:44.014Z,1032.03
2017-10-28T03:45:44.003Z,1032
2017-10-28T03:46:43.996Z,1032.01
2017-10-28T03:47:43.985Z,1032.06
2017-10-28T03:48:43.976Z,1032.04
2017-10-28T03:49:43.966Z,1032.04
2017-10-28T03:50:43.958Z,1032.05
2017-10-28T03:51:43.948Z,1032.05
2017-10-28T03:52:43.943Z,1032.05
2017-10-28T03:53:43.929Z,1032.02
2017-10-28T03:54:43.920Z,1032
2017-10-28T03:55:43.910Z,1031.97
2017-10-28T03:56:43.901Z,1031.82
2017-10-28T03:57:43.891Z,1031.9
2017-10-28T03:58:43.882Z,1031.84
2017-10-28T03:59:43.874Z,1031.85
2017-10-28T04:00:43.868Z,1031.85
2017-10-28T04:01:43.855Z,1031.86
2017-10-28T04:02:43.847Z,1031.87
2017-10-28T04:03:43.835Z,1031.86
2017-10-28T04:04:43.826Z,1031.81
2017-10-28T04:05:43.817Z,1031.82
2017-10-28T04:06:43.808Z,1031.8
2017-10-28T04:07:43.798Z,1031.8
2017-10-28T04:08:43.789Z,1031.82
2017-10-28T04:09:43.780Z,1031.81
2017-10-28T04:10:43.769Z,1031.8
2017-10-28T04:11:43.760Z,1031.77
2017-10-28T04:12:43.758Z,1031.72
2017-10-28T04:13:43.748Z,1031.76
2017-10-28T04:14:43.733Z,1031.75
2017-10-28T04:15:43.723Z,1031.77
2017-10-28T04:16:43.714Z,1031.71
2017-10-28T04:17:43.707Z,1031.75
2017-10-28T04:18:43.696Z,1031.7
2017-10-28T04:19:43.699Z,1031.65
2017-10-28T04:20:43.679Z,1031.71
2017-10-28T04:21:43.669Z,1031.64
2017-10-28T04:22:43.658Z,1031.65
2017-10-28T04:23:43.650Z,1031.66
2017-10-28T04:24:43.641Z,1031.63
2017-10-28T04:25:43.630Z,1031.63
2017-10-28T04:26:43.627Z,1031.64
2017-10-28T04:27:43.612Z,1031.66
2017-10-28T04:28:43.602Z,1031.57
2017-10-28T04:29:43.593Z,1031.62
2017-10-28T04:30:43.588Z,1031.57
2017-10-28T04:31:43.575Z,1031.6
2017-10-28T04:32:43.564Z,1031.61
2017-10-28T04:33:43.806Z,1031.55
2017-10-28T04:34:43.546Z,1031.5
2017-10-28T04:35:43.538Z,1031.51
2017-10-28T04:36:43.528Z,1031.45
2017-10-28T04:37:43.518Z,1031.52
2017-10-28T04:38:43.508Z,1031.46
2017-10-28T04:39:43.500Z,1031.44
2017-10-28T04:40:43.489Z,1031.42
2017-10-28T04:41:43.481Z,1031.37
2017-10-28T04:42:43.472Z,1031.34
2017-10-28T04:43:43.469Z,1031.38
2017-10-28T04:44:43.453Z,1031.31
2017-10-28T04:45:43.443Z,1031.28
2017-10-28T04:46:43.436Z,1031.27
2017-10-28T04:47:43.424Z,1031.2
2017-10-28T04:48:43.415Z,1031.19
2017-10-28T04:49:43.406Z,1031.19
2017-10-28T04:50:43.396Z,1031.16
2017-10-28T04:51:43.389Z,1031.15
2017-10-28T04:52:43.379Z,1031.09
2017-10-28T04:53:43.369Z,1031.07
2017-10-28T04:54:43.360Z,1031.06
2017-10-28T04:55:43.350Z,1031.02
2017-10-28T04:56:43.340Z,1031
2017-10-28T04:57:43.332Z,1031.03
2017-10-28T04:58:43.321Z,1030.95
2017-10-28T04:59:43.312Z,1030.95
2017-10-28T05:00:43.306Z,1030.93
2017-10-28T05:01:43.293Z,1030.83
2017-10-28T05:02:43.285Z,1030.8
2017-10-28T05:03:43.277Z,1030.8
2017-10-28T05:04:43.266Z,1030.78
2017-10-28T05:05:43.255Z,1030.76
2017-10-28T05:06:43.246Z,1030.73
2017-10-28T05:07:43.238Z,1030.67
2017-10-28T05:08:43.228Z,1030.68
2017-10-28T05:09:43.218Z,1030.69
2017-10-28T05:10:43.210Z,1030.67
2017-10-28T05:11:43.200Z,1030.61
2017-10-28T05:12:43.190Z,1030.56
2017-10-28T05:13:43.180Z,1030.59
2017-10-28T05:14:43.171Z,1030.62
2017-10-28T05:15:43.162Z,1030.54
2017-10-28T05:16:43.153Z,1030.5
2017-10-28T05:17:43.142Z,1030.53
2017-10-28T05:18:43.133Z,1030.51
2017-10-28T05:19:43.132Z,1030.52
2017-10-28T05:20:43.115Z,1030.58
2017-10-28T05:21:43.105Z,1030.59
2017-10-28T05:22:43.096Z,1030.5
2017-10-28T05:23:43.087Z,1030.45
2017-10-28T05:24:43.078Z,1030.44
2017-10-28T05:25:43.068Z,1030.32
2017-10-28T05:26:43.065Z,1030.27
2017-10-28T05:27:43.049Z,1030.22
2017-10-28T05:28:43.040Z,1030.16
2017-10-28T05:29:43.030Z,1030.08
2017-10-28T05:30:43.020Z,1030.09
2017-10-28T05:31:43.010Z,1030.04
2017-10-28T05:32:43.001Z,1030
2017-10-28T05:33:42.993Z,1029.95
2017-10-28T05:34:42.982Z,1029.97
2017-10-28T05:35:42.974Z,1029.9
2017-10-28T05:36:42.963Z,1029.89
2017-10-28T05:37:42.955Z,1029.89
2017-10-28T05:38:42.946Z,1029.85
2017-10-28T05:39:42.939Z,1029.84
2017-10-28T05:40:42.926Z,1029.81
2017-10-28T05:41:42.917Z,1029.8
2017-10-28T05:42:42.908Z,1029.82
2017-10-28T05:43:42.898Z,1029.75
2017-10-28T05:44:42.889Z,1029.75
2017-10-28T05:45:42.879Z,1029.73
2017-10-28T05:46:42.883Z,1029.76
2017-10-28T05:47:42.862Z,1029.72
2017-10-28T05:48:42.850Z,1029.77
2017-10-28T05:49:42.843Z,1029.81
2017-10-28T05:50:42.831Z,1029.74
2017-10-28T05:51:42.826Z,1029.71
2017-10-28T05:52:42.813Z,1029.75
2017-10-28T05:53:42.804Z,1029.68
2017-10-28T05:54:42.795Z,1029.69
2017-10-28T05:55:42.785Z,1029.7
2017-10-28T05:56:42.776Z,1029.58
2017-10-28T05:57:42.766Z,1029.59
2017-10-28T05:58:42.757Z,1029.6
2017-10-28T05:59:42.749Z,1029.47
2017-10-28T06:00:42.739Z,1029.49
2017-10-28T06:01:42.730Z,1029.44
2017-10-28T06:02:42.721Z,1029.39
2017-10-28T06:03:42.712Z,1029.43
2017-10-28T06:04:42.700Z,1029.44
2017-10-28T06:05:42.692Z,1029.39
2017-10-28T06:06:42.683Z,1029.36
2017-10-28T06:07:42.672Z,1029.38
2017-10-28T06:08:42.665Z,1029.3
2017-10-28T06:09:42.656Z,1029.19
2017-10-28T06:10:42.647Z,1029.28
2017-10-28T06:11:42.635Z,1029.08
2017-10-28T06:12:42.627Z,1029.1
2017-10-28T06:13:42.619Z,1029.07
2017-10-28T06:14:42.608Z,1029.15
2017-10-28T06:15:42.599Z,1029.11
2017-10-28T06:16:42.590Z,1029.17
2017-10-28T06:17:42.582Z,1029.19
2017-10-28T06:18:42.571Z,1029.18
2017-10-28T06:19:42.563Z,1029.17
2017-10-28T06:20:42.553Z,1029.14
2017-10-28T06:21:42.545Z,1029.16
2017-10-28T06:22:42.535Z,1029.14
2017-10-28T06:23:42.526Z,1029.09
2017-10-28T06:24:42.517Z,1029.04
2017-10-28T06:25:42.508Z,1029.04
2017-10-28T06:26:42.500Z,1029.05
2017-10-28T06:27:42.490Z,1029.14
2017-10-28T06:28:42.489Z,1029.2
2017-10-28T06:29:42.472Z,1029.15
2017-10-28T06:30:42.462Z,1029.2
2017-10-28T06:31:42.455Z,1029.17
2017-10-28T06:32:42.445Z,1029.12
2017-10-28T06:33:42.434Z,1029.09
2017-10-28T06:34:42.426Z,1029.11
2017-10-28T06:35:42.417Z,1029.17
2017-10-28T06:36:42.406Z,1029.08
2017-10-28T06:37:42.401Z,1029.08
2017-10-28T06:38:42.389Z,1029.06
2017-10-28T06:39:42.381Z,1028.98
2017-10-28T06:40:42.371Z,1029.05
2017-10-28T06:41:42.362Z,1028.98
2017-10-28T06:42:42.357Z,1029.01
2017-10-28T06:43:42.346Z,1029.05
2017-10-28T06:44:42.334Z,1029.09
2017-10-28T06:45:42.325Z,1029.17
2017-10-28T06:46:42.317Z,1029.08
2017-10-28T06:47:42.308Z,1029.11
2017-10-28T06:48:42.298Z,1028.98
2017-10-28T06:49:42.290Z,1029.03
2017-10-28T06:50:42.281Z,1028.94
2017-10-28T06:51:42.281Z,1028.87
2017-10-28T06:52:42.263Z,1028.81
2017-10-28T06:53:42.254Z,1028.71
2017-10-28T06:54:42.245Z,1028.69
2017-10-28T06:55:42.235Z,1028.68
2017-10-28T06:56:42.226Z,1028.57
2017-10-28T06:57:42.218Z,1028.49
2017-10-28T06:58:42.213Z,1028.47
2017-10-28T06:59:42.200Z,1028.26
2017-10-28T07:00:42.192Z,1028.14
2017-10-28T07:01:42.181Z,1027.97
2017-10-28T07:02:42.172Z,1027.88
2017-10-28T07:03:42.163Z,1027.8
2017-10-28T07:04:42.154Z,1027.75
2017-10-28T07:05:42.148Z,1027.72
2017-10-28T07:06:42.136Z,1027.7
2017-10-28T07:07:42.130Z,1027.72
2017-10-28T07:08:42.121Z,1027.61
2017-10-28T07:09:42.110Z,1027.59
2017-10-28T07:10:42.102Z,1027.58
2017-10-28T07:11:42.094Z,1027.75
2017-10-28T07:12:42.085Z,1027.67
2017-10-28T07:13:42.077Z,1027.68
2017-10-28T07:14:42.067Z,1027.65
2017-10-28T07:15:42.060Z,1027.6
2017-10-28T07:16:42.059Z,1027.66
2017-10-28T07:17:42.041Z,1027.62
2017-10-28T07:18:42.033Z,1027.68
2017-10-28T07:19:42.025Z,1027.62
2017-10-28T07:20:42.016Z,1027.65
2017-10-28T07:21:42.008Z,1027.63
2017-10-28T07:22:42.000Z,1027.7
2017-10-28T07:23:41.996Z,1027.7
2017-10-28T07:24:41.991Z,1027.69
2017-10-28T07:25:41.974Z,1027.73
2017-10-28T07:26:41.965Z,1027.8
2017-10-28T07:27:41.971Z,1027.81
2017-10-28T07:28:41.950Z,1027.77
2017-10-28T07:29:41.941Z,1027.72
2017-10-28T07:30:41.943Z,1027.59
2017-10-28T07:31:41.922Z,1027.72
2017-10-28T07:32:41.913Z,1027.66
2017-10-28T07:33:41.907Z,1027.7
2017-10-28T07:34:41.898Z,1027.6
2017-10-28T07:35:41.888Z,1027.58
2017-10-28T07:36:41.881Z,1027.59
2017-10-28T07:37:41.875Z,1027.46
2017-10-28T07:38:41.865Z,1027.48
2017-10-28T07:39:41.857Z,1027.49
2017-10-28T07:40:41.854Z,1027.44
2017-10-28T07:41:41.838Z,1027.44
2017-10-28T07:42:41.830Z,1027.52
2017-10-28T07:43:41.822Z,1027.48
2017-10-28T07:44:41.815Z,1027.53
2017-10-28T07:45:41.807Z,1027.55
2017-10-28T07:46:41.796Z,1027.45
2017-10-28T07:47:41.788Z,1027.45
2017-10-28T07:48:41.781Z,1027.47
2017-10-28T07:49:41.771Z,1027.38
2017-10-28T07:50:41.764Z,1027.31
2017-10-28T07:51:41.754Z,1027.22
2017-10-28T07:52:41.746Z,1027.17
2017-10-28T07:53:41.739Z,1027.19
2017-10-28T07:54:41.730Z,1027.11
2017-10-28T07:55:41.723Z,1027.08
2017-10-28T07:56:41.713Z,1027.12
2017-10-28T07:57:41.705Z,1026.87
2017-10-28T07:58:41.696Z,1026.88
2017-10-28T07:59:41.689Z,1026.79
2017-10-28T08:00:41.680Z,1026.74
2017-10-28T08:01:41.672Z,1026.68
2017-10-28T08:02:41.666Z,1026.68
2017-10-28T08:03:41.657Z,1026.66
2017-10-28T08:04:41.648Z,1026.72
2017-10-28T08:05:41.641Z,1026.69
2017-10-28T08:06:41.661Z,1026.75
2017-10-28T08:07:41.626Z,1026.73
2017-10-28T08:08:41.615Z,1026.77
2017-10-28T08:09:41.608Z,1026.74
2017-10-28T08:10:41.600Z,1026.72
2017-10-28T08:11:41.842Z,1026.75
2017-10-28T08:12:41.585Z,1026.74
2017-10-28T08:13:41.575Z,1026.7
2017-10-28T08:14:41.571Z,1026.58
2017-10-28T08:15:41.558Z,1026.56
2017-10-28T08:16:41.550Z,1026.57
2017-10-28T08:17:41.543Z,1026.62
2017-10-28T08:18:41.535Z,1026.36
2017-10-28T08:19:41.527Z,1026.32
2017-10-28T08:20:41.519Z,1026.35
2017-10-28T08:21:41.510Z,1026.29
2017-10-28T08:22:41.502Z,1026.32
2017-10-28T08:23:41.501Z,1026.36
2017-10-28T08:24:41.486Z,1026.34
2017-10-28T08:25:41.478Z,1026.35
2017-10-28T08:26:41.470Z,1026.33
2017-10-28T08:27:41.463Z,1026.36
2017-10-28T08:28:41.455Z,1026.31
2017-10-28T08:29:41.447Z,1026.32
2017-10-28T08:30:41.438Z,1026.39
2017-10-28T08:31:41.430Z,1026.4
2017-10-28T08:32:41.423Z,1026.49
2017-10-28T08:33:41.414Z,1026.35
2017-10-28T08:34:41.406Z,1026.46
2017-10-28T08:35:41.399Z,1026.54
2017-10-28T08:36:41.390Z,1026.7
2017-10-28T08:37:41.387Z,1026.6
2017-10-28T08:38:41.375Z,1026.56
2017-10-28T08:39:41.367Z,1026.52
2017-10-28T08:40:41.359Z,1026.45
2017-10-28T08:41:41.349Z,1026.4
2017-10-28T08:42:41.341Z,1026.34
2017-10-28T08:43:41.335Z,1026.33
2017-10-28T08:44:41.326Z,1026.36
2017-10-28T08:45:41.318Z,1026.31
2017-10-28T08:46:41.311Z,1026.36
2017-10-28T08:47:41.301Z,1026.36
2017-10-28T08:48:41.299Z,1026.29
2017-10-28T08:49:41.284Z,1026.26
2017-10-28T08:50:41.277Z,1026.27
2017-10-28T08:51:41.271Z,1026.28
2017-10-28T08:52:41.260Z,1026.14
2017-10-28T08:53:41.253Z,1026.1
2017-10-28T08:54:41.245Z,1026.04
2017-10-28T08:55:41.236Z,1025.88
2017-10-28T08:56:41.228Z,1025.78
2017-10-28T08:57:41.222Z,1025.72
2017-10-28T08:58:41.211Z,1025.74
2017-10-28T08:59:41.202Z,1025.74
2017-10-28T09:00:41.196Z,1025.67
2017-10-28T09:01:41.188Z,1025.66
2017-10-28T09:02:41.180Z,1025.53
2017-10-28T09:03:41.172Z,1025.64
2017-10-28T09:04:41.170Z,1025.62
2017-10-28T09:05:41.161Z,1025.61
2017-10-28T09:06:41.148Z,1025.62
2017-10-28T09:07:41.139Z,1025.63
2017-10-28T09:08:41.133Z,1025.49
2017-10-28T09:09:41.124Z,1025.49
2017-10-28T09:10:41.117Z,1025.44
2017-10-28T09:11:41.113Z,1025.48
2017-10-28T09:12:41.100Z,1025.41
2017-10-28T09:13:41.093Z,1025.35
2017-10-28T09:14:41.085Z,1025.27
2017-10-28T09:15:41.078Z,1025.18
2017-10-28T09:16:41.069Z,1025.08
2017-10-28T09:17:41.061Z,1024.98
2017-10-28T09:18:41.053Z,1024.93
2017-10-28T09:19:41.049Z,1024.84
2017-10-28T09:20:41.040Z,1024.76
2017-10-28T09:21:41.031Z,1024.68
2017-10-28T09:22:41.022Z,1024.77
2017-10-28T09:23:41.016Z,1024.8
2017-10-28T09:24:41.008Z,1024.87
2017-10-28T09:25:41.001Z,1024.75
2017-10-28T09:26:41.000Z,1024.77
2017-10-28T09:27:40.986Z,1024.75
2017-10-28T09:28:40.978Z,1024.68
2017-10-28T09:29:40.971Z,1024.72
2017-10-28T09:30:40.964Z,1024.61
2017-10-28T09:31:40.955Z,1024.6
2017-10-28T09:32:40.946Z,1024.58
2017-10-28T09:33:40.940Z,1024.57
2017-10-28T09:34:40.935Z,1024.55
2017-10-28T09:35:40.925Z,1024.68
2017-10-28T09:36:40.918Z,1024.75
2017-10-28T09:37:40.911Z,1024.83
2017-10-28T09:38:40.909Z,1024.7
2017-10-28T09:39:40.896Z,1024.75
2017-10-28T09:40:40.888Z,1024.86
2017-10-28T09:41:40.882Z,1024.88
2017-10-28T09:42:40.874Z,1024.93
2017-10-28T09:43:40.865Z,1024.98
2017-10-28T09:44:40.859Z,1024.97
2017-10-28T09:45:40.851Z,1025.03
2017-10-28T09:46:40.843Z,1025
2017-10-28T09:47:40.834Z,1024.98
2017-10-28T09:48:40.827Z,1024.99
2017-10-28T09:49:40.819Z,1024.85
2017-10-28T09:50:40.812Z,1024.77
2017-10-28T09:51:40.805Z,1024.65
2017-10-28T09:52:40.798Z,1024.62
2017-10-28T09:53:40.790Z,1024.51
2017-10-28T09:54:40.781Z,1024.46
2017-10-28T09:55:40.774Z,1024.48
2017-10-28T09:56:40.766Z,1024.32
2017-10-28T09:57:40.759Z,1024.28
2017-10-28T09:58:40.752Z,1024.26
2017-10-28T09:59:40.744Z,1024.11
2017-10-28T10:00:40.737Z,1024.04
2017-10-28T10:01:40.728Z,1023.96
2017-10-28T10:02:40.722Z,1023.87
2017-10-28T10:03:40.713Z,1023.78
2017-10-28T10:04:40.706Z,1023.83
2017-10-28T10:05:40.700Z,1023.8
2017-10-28T10:06:40.694Z,1023.84
2017-10-28T10:07:40.684Z,1023.81
2017-10-28T10:08:40.677Z,1023.82
2017-10-28T10:09:40.670Z,1023.72
2017-10-28T10:10:40.663Z,1023.73
2017-10-28T10:11:40.655Z,1023.75
2017-10-28T10:12:40.648Z,1023.71
2017-10-28T10:13:40.640Z,1023.73
2017-10-28T10:14:40.634Z,1023.72
2017-10-28T10:15:40.628Z,1023.66
2017-10-28T10:16:40.618Z,1023.71
2017-10-28T10:17:40.611Z,1023.84
2017-10-28T10:18:40.606Z,1023.86
2017-10-28T10:19:40.596Z,1023.9
2017-10-28T10:20:40.589Z,1023.92
2017-10-28T10:21:40.591Z,1023.85
2017-10-28T10:22:40.576Z,1023.9
2017-10-28T10:23:40.567Z,1023.84
2017-10-28T10:24:40.561Z,1023.77
2017-10-28T10:25:40.555Z,1023.79
2017-10-28T10:26:40.548Z,1023.8
2017-10-28T10:27:40.538Z,1023.85
2017-10-28T10:28:40.535Z,1023.89
2017-10-28T10:29:40.524Z,1023.96
2017-10-28T10:30:40.516Z,1023.93
2017-10-28T10:31:40.510Z,1023.9
2017-10-28T10:32:40.502Z,1023.89
2017-10-28T10:33:40.495Z,1023.92
2017-10-28T10:34:40.487Z,1023.88
2017-10-28T10:35:40.480Z,1023.81
2017-10-28T10:36:40.472Z,1023.85
2017-10-28T10:37:40.466Z,1023.88
2017-10-28T10:38:40.458Z,1023.93
2017-10-28T10:39:40.450Z,1023.96
2017-10-28T10:40:40.444Z,1023.88
2017-10-28T10:41:40.435Z,1024
2017-10-28T10:42:40.429Z,1023.9
2017-10-28T10:43:40.421Z,1023.82
2017-10-28T10:44:40.414Z,1023.82
2017-10-28T10:45:40.406Z,1023.83
2017-10-28T10:46:40.399Z,1023.65
2017-10-28T10:47:40.391Z,1023.64
2017-10-28T10:48:40.383Z,1023.64
2017-10-28T10:49:40.376Z,1023.56
2017-10-28T10:50:40.376Z,1023.49
2017-10-28T10:51:40.365Z,1023.39
2017-10-28T10:52:40.352Z,1023.4
2017-10-28T10:53:40.345Z,1023.33
2017-10-28T10:54:40.340Z,1023.37
2017-10-28T10:55:40.331Z,1023.32
2017-10-28T10:56:40.322Z,1023.35
2017-10-28T10:57:40.316Z,1023.26
2017-10-28T10:58:40.309Z,1023.25
2017-10-28T10:59:40.301Z,1023.1
2017-10-28T11:00:40.293Z,1022.98
2017-10-28T11:01:40.286Z,1022.96
2017-10-28T11:02:40.278Z,1022.95
2017-10-28T11:03:40.270Z,1022.88
2017-10-28T11:04:40.264Z,1022.81
2017-10-28T11:05:40.257Z,1022.82
2017-10-28T11:06:40.249Z,1022.79
2017-10-28T11:07:40.240Z,1022.87
2017-10-28T11:08:40.235Z,1022.89
2017-10-28T11:09:40.226Z,1022.92
2017-10-28T11:10:40.221Z,1022.85
2017-10-28T11:11:40.214Z,1022.82
2017-10-28T11:12:40.212Z,1022.8
2017-10-28T11:13:40.200Z,1022.76
2017-10-28T11:14:40.192Z,1022.75
2017-10-28T11:15:40.184Z,1022.59
2017-10-28T11:16:40.179Z,1022.61
2017-10-28T11:17:40.171Z,1022.52
2017-10-28T11:18:40.170Z,1022.45
2017-10-28T11:19:40.357Z,1022.53
2017-10-28T11:20:40.150Z,1022.65
2017-10-28T11:21:40.141Z,1022.56
2017-10-28T11:22:40.135Z,1022.56
2017-10-28T11:23:40.128Z,1022.65
2017-10-28T11:24:40.122Z,1022.61
2017-10-28T11:25:40.113Z,1022.62
2017-10-28T11:26:40.105Z,1022.63
2017-10-28T11:27:40.100Z,1022.59
2017-10-28T11:28:40.093Z,1022.57
2017-10-28T11:29:40.084Z,1022.58
2017-10-28T11:30:40.078Z,1022.53
2017-10-28T11:31:40.071Z,1022.51
2017-10-28T11:32:40.064Z,1022.52
2017-10-28T11:33:40.056Z,1022.45
2017-10-28T11:34:40.050Z,1022.5
2017-10-28T11:35:40.043Z,1022.39
2017-10-28T11:36:40.035Z,1022.45
2017-10-28T11:37:40.036Z,1022.31
2017-10-28T11:38:40.022Z,1022.52
2017-10-28T11:39:40.014Z,1022.47
2017-10-28T11:40:40.005Z,1022.44
2017-10-28T11:41:39.998Z,1022.55
2017-10-28T11:42:39.991Z,1022.5
2017-10-28T11:43:39.984Z,1022.51
2017-10-28T11:44:39.976Z,1022.59
2017-10-28T11:45:39.969Z,1022.51
2017-10-28T11:46:39.961Z,1022.51
2017-10-28T11:47:39.955Z,1022.6
2017-10-28T11:48:39.948Z,1022.65
2017-10-28T11:49:40.189Z,1022.64
2017-10-28T11:50:39.936Z,1022.68
2017-10-28T11:51:39.924Z,1022.62
2017-10-28T11:52:39.919Z,1022.66
2017-10-28T11:53:39.909Z,1022.67
2017-10-28T11:54:39.904Z,1022.64
2017-10-28T11:55:39.894Z,1022.55
2017-10-28T11:56:39.887Z,1022.5
2017-10-28T11:57:39.880Z,1022.36
2017-10-28T11:58:39.872Z,1022.39
2017-10-28T11:59:39.865Z,1022.39
2017-10-28T12:00:39.857Z,1022.33
2017-10-28T12:01:39.852Z,1022.3
2017-10-28T12:02:39.842Z,1022.28
2017-10-28T12:03:39.835Z,1022.26
2017-10-28T12:04:39.827Z,1022.29
2017-10-28T12:05:39.820Z,1022.24
2017-10-28T12:06:39.813Z,1022.14
2017-10-28T12:07:39.805Z,1021.99
2017-10-28T12:08:39.798Z,1022.08